createdAt,value
2019-02-22T00:00:53.594Z,94.86
2019-02-22T00:03:22.193Z,94.83
2019-02-22T00:05:50.662Z,94.52
2019-02-22T00:08:19.414Z,94.87
2019-02-22T00:10:48.045Z,94.51
2019-02-22T00:13:16.514Z,94.47
2019-02-22T00:15:45.043Z,94.49
2019-02-22T00:18:13.665Z,94.53
2019-02-22T00:20:42.137Z,94.65
2019-02-22T00:23:10.647Z,94.83
2019-02-22T00:25:39.177Z,94.79
2019-02-22T00:28:07.784Z,94.67
2019-02-22T00:30:36.353Z,94.82
2019-02-22T00:33:05.015Z,94.72
2019-02-22T00:35:33.528Z,94.86
2019-02-22T00:38:02.053Z,94.57
2019-02-22T00:40:30.583Z,95.06
2019-02-22T00:42:59.206Z,95.01
2019-02-22T00:45:27.790Z,95.00
2019-02-22T00:47:56.244Z,95.03
2019-02-22T00:50:24.727Z,95.02
2019-02-22T00:52:53.275Z,95.30
2019-02-22T00:55:21.716Z,94.96
2019-02-22T00:57:50.218Z,95.05
2019-02-22T01:00:18.752Z,95.06
2019-02-22T01:02:47.284Z,95.36
2019-02-22T01:05:15.800Z,95.27
2019-02-22T01:07:44.404Z,95.31
2019-02-22T01:10:13.113Z,95.73
2019-02-22T01:12:41.593Z,95.63
2019-02-22T01:15:10.184Z,95.49
2019-02-22T01:17:38.681Z,95.50
2019-02-22T01:20:07.253Z,95.71
2019-02-22T01:22:35.869Z,95.33
2019-02-22T01:25:05.109Z,95.30
2019-02-22T01:27:33.632Z,95.00
2019-02-22T01:30:02.091Z,94.92
2019-02-22T01:32:30.591Z,95.40
2019-02-22T01:34:59.157Z,95.38
2019-02-22T01:37:27.691Z,95.53
2019-02-22T01:39:56.214Z,95.38
2019-02-22T01:42:24.771Z,95.78
2019-02-22T01:44:53.485Z,95.65
2019-02-22T01:47:22.417Z,95.56
2019-02-22T01:49:50.879Z,95.41
2019-02-22T01:52:19.338Z,95.41
2019-02-22T01:54:48.159Z,95.42
2019-02-22T01:57:16.791Z,95.61
2019-02-22T01:59:45.504Z,95.43
2019-02-22T02:02:14.035Z,95.40
2019-02-22T02:04:42.568Z,95.32
2019-02-22T02:07:11.099Z,95.34
2019-02-22T02:09:39.716Z,95.15
2019-02-22T02:12:08.524Z,95.43
2019-02-22T02:14:37.200Z,95.39
2019-02-22T02:17:05.813Z,95.49
2019-02-22T02:19:34.366Z,95.25
2019-02-22T02:22:02.847Z,95.28
2019-02-22T02:24:31.395Z,95.36
2019-02-22T02:27:00.017Z,95.46
2019-02-22T02:29:28.625Z,95.70
2019-02-22T02:31:57.192Z,95.63
2019-02-22T02:34:25.839Z,95.80
2019-02-22T02:36:54.310Z,95.84
2019-02-22T02:39:22.826Z,95.92
2019-02-22T02:41:51.334Z,95.84
2019-02-22T02:44:19.866Z,95.61
2019-02-22T02:46:48.454Z,95.52
2019-02-22T02:49:17.055Z,95.53
2019-02-22T02:51:45.536Z,95.68
2019-02-22T02:54:14.019Z,95.52
2019-02-22T02:56:42.504Z,95.39
2019-02-22T02:59:11.009Z,95.57
2019-02-22T03:01:39.541Z,95.48
2019-02-22T03:04:08.152Z,95.61
2019-02-22T03:06:38.341Z,95.54
2019-02-22T03:09:09.000Z,95.37
2019-02-22T03:11:37.527Z,95.17
2019-02-22T03:14:06.017Z,95.35
2019-02-22T03:16:34.764Z,95.27
2019-02-22T03:19:03.338Z,95.12
2019-02-22T03:21:31.844Z,95.45
2019-02-22T03:24:00.476Z,95.45
2019-02-22T03:26:29.087Z,95.46
2019-02-22T03:28:57.563Z,95.44
2019-02-22T03:31:26.063Z,95.42
2019-02-22T03:33:54.530Z,95.55
2019-02-22T03:36:23.013Z,95.47
2019-02-22T03:38:51.699Z,95.48
2019-02-22T03:41:31.893Z,95.41
2019-02-22T03:43:50.548Z,95.54
2019-02-22T03:46:19.489Z,95.44
2019-02-22T03:48:48.127Z,95.56
2019-02-22T03:51:16.860Z,95.66
2019-02-22T03:53:47.085Z,95.59
2019-02-22T03:56:15.824Z,95.53
2019-02-22T03:58:44.417Z,95.51
2019-02-22T04:01:12.960Z,95.34
2019-02-22T04:03:41.780Z,95.49
2019-02-22T04:06:10.267Z,95.43
2019-02-22T04:08:38.722Z,95.42
2019-02-22T04:11:07.238Z,95.27
2019-02-22T04:13:35.750Z,95.18
2019-02-22T04:16:04.367Z,95.09
2019-02-22T04:18:33.124Z,95.04
2019-02-22T04:21:01.924Z,94.92
2019-02-22T04:23:30.365Z,95.08
2019-02-22T04:25:58.916Z,95.00
2019-02-22T04:28:27.387Z,94.97
2019-02-22T04:30:55.883Z,95.01
2019-02-22T04:33:24.380Z,95.01
2019-02-22T04:35:53.022Z,95.12
2019-02-22T04:38:21.712Z,94.97
2019-02-22T04:40:50.276Z,95.16
2019-02-22T04:43:18.732Z,95.16
2019-02-22T04:45:47.237Z,95.15
2019-02-22T04:48:15.986Z,95.07
2019-02-22T04:50:44.522Z,94.98
2019-02-22T04:53:12.985Z,94.87
2019-02-22T04:55:41.666Z,94.91
2019-02-22T04:58:10.122Z,94.92
2019-02-22T05:00:38.611Z,94.87
2019-02-22T05:03:07.344Z,94.89
2019-02-22T05:05:35.803Z,94.81
2019-02-22T05:08:04.481Z,94.75
2019-02-22T05:10:32.961Z,94.81
2019-02-22T05:13:01.440Z,94.85
2019-02-22T05:15:30.277Z,94.86
2019-02-22T05:17:58.744Z,94.90
2019-02-22T05:20:27.259Z,94.90
2019-02-22T05:23:03.968Z,95.01
2019-02-22T05:25:25.955Z,94.99
2019-02-22T05:27:54.440Z,94.99
2019-02-22T05:30:22.959Z,94.99
2019-02-22T05:32:51.698Z,94.80
2019-02-22T05:35:20.159Z,94.80
2019-02-22T05:37:48.637Z,95.04
2019-02-22T05:40:17.099Z,95.20
2019-02-22T05:42:45.596Z,95.31
2019-02-22T05:45:14.085Z,95.24
2019-02-22T05:47:42.537Z,95.20
2019-02-22T05:50:11.153Z,95.24
2019-02-22T05:52:39.930Z,95.15
2019-02-22T05:55:08.562Z,95.21
2019-02-22T05:57:37.092Z,95.15
2019-02-22T06:00:07.094Z,95.11
2019-02-22T06:02:35.629Z,95.14
2019-02-22T06:05:04.698Z,95.07
2019-02-22T06:07:33.252Z,95.07
2019-02-22T06:10:01.738Z,95.15
2019-02-22T06:12:34.468Z,95.05
2019-02-22T06:15:00.669Z,95.25
2019-02-22T06:17:29.140Z,95.25
2019-02-22T06:19:57.595Z,95.03
2019-02-22T06:22:29.711Z,94.99
2019-02-22T06:24:56.312Z,95.04
2019-02-22T06:27:24.782Z,94.95
2019-02-22T06:29:53.814Z,95.06
2019-02-22T06:32:22.284Z,95.15
2019-02-22T06:34:50.747Z,95.09
2019-02-22T06:37:19.314Z,95.05
2019-02-22T06:39:48.150Z,95.00
2019-02-22T06:42:16.816Z,95.04
2019-02-22T06:44:45.373Z,94.97
2019-02-22T06:47:13.855Z,95.13
2019-02-22T06:49:44.405Z,95.05
2019-02-22T06:52:12.617Z,94.97
2019-02-22T06:54:41.966Z,95.03
2019-02-22T06:57:10.497Z,95.02
2019-02-22T06:59:38.948Z,95.05
2019-02-22T07:02:07.510Z,95.16
2019-02-22T07:04:35.999Z,95.13
2019-02-22T07:07:04.554Z,95.11
2019-02-22T07:09:33.078Z,95.08
2019-02-22T07:12:05.936Z,95.22
2019-02-22T07:14:34.683Z,95.17
2019-02-22T07:17:03.304Z,95.16
2019-02-22T07:19:31.763Z,95.20
2019-02-22T07:22:00.267Z,95.16
2019-02-22T07:24:28.807Z,95.52
2019-02-22T07:26:57.289Z,95.38
2019-02-22T07:29:25.743Z,95.40
2019-02-22T07:32:02.643Z,95.51
2019-02-22T07:34:24.425Z,95.51
2019-02-22T07:36:52.892Z,95.42
2019-02-22T07:39:27.720Z,95.35
2019-02-22T07:41:51.764Z,95.36
2019-02-22T07:44:20.222Z,95.22
2019-02-22T07:46:48.968Z,95.22
2019-02-22T07:49:25.496Z,95.12
2019-02-22T07:51:54.125Z,95.15
2019-02-22T07:54:22.588Z,95.08
2019-02-22T07:56:51.147Z,94.97
2019-02-22T07:59:19.677Z,94.92
2019-02-22T08:01:48.477Z,94.79
2019-02-22T08:04:16.941Z,94.61
2019-02-22T08:06:45.496Z,94.45
2019-02-22T08:09:13.958Z,94.25
2019-02-22T08:11:42.716Z,93.94
2019-02-22T08:14:11.169Z,93.75
2019-02-22T08:16:39.704Z,93.78
2019-02-22T08:19:08.211Z,93.33
2019-02-22T08:21:36.663Z,92.56
2019-02-22T08:24:05.303Z,92.19
2019-02-22T08:26:33.781Z,91.52
2019-02-22T08:29:02.314Z,91.25
2019-02-22T08:31:31.158Z,90.89
2019-02-22T08:33:59.630Z,90.62
2019-02-22T08:36:28.086Z,90.48
2019-02-22T08:38:56.590Z,90.19
2019-02-22T08:41:25.176Z,90.01
2019-02-22T08:43:53.660Z,90.31
2019-02-22T08:46:22.140Z,90.12
2019-02-22T08:48:50.697Z,89.92
2019-02-22T08:51:19.242Z,89.71
2019-02-22T08:53:47.815Z,89.56
2019-02-22T08:56:16.540Z,89.63
2019-02-22T08:58:45.111Z,89.55
2019-02-22T09:01:13.611Z,89.51
2019-02-22T09:03:50.625Z,89.29
2019-02-22T09:06:12.343Z,89.18
2019-02-22T09:08:41.703Z,88.94
2019-02-22T09:11:10.156Z,88.20
2019-02-22T09:13:43.550Z,88.20
2019-02-22T09:16:08.923Z,87.94
2019-02-22T09:18:37.406Z,87.44
2019-02-22T09:21:05.907Z,86.99
2019-02-22T09:23:34.371Z,86.25
2019-02-22T09:26:02.950Z,86.52
2019-02-22T09:28:31.429Z,86.11
2019-02-22T09:30:59.960Z,85.57
2019-02-22T09:33:28.453Z,85.01
2019-02-22T09:35:56.947Z,84.84
2019-02-22T09:38:25.483Z,84.53
2019-02-22T09:40:53.977Z,84.03
2019-02-22T09:43:22.623Z,83.45
2019-02-22T09:45:51.107Z,83.49
2019-02-22T09:48:19.620Z,82.33
2019-02-22T09:50:48.075Z,82.09
2019-02-22T09:53:16.572Z,81.75
2019-02-22T09:55:45.025Z,80.87
2019-02-22T09:58:13.613Z,79.18
2019-02-22T10:00:42.207Z,77.73
2019-02-22T10:03:10.739Z,77.52
2019-02-22T10:05:39.197Z,75.00
2019-02-22T10:08:07.713Z,73.66
2019-02-22T10:10:36.182Z,73.27
2019-02-22T10:13:04.778Z,72.34
2019-02-22T10:15:33.546Z,72.61
2019-02-22T10:18:02.010Z,72.56
2019-02-22T10:20:30.770Z,71.94
2019-02-22T10:22:59.295Z,71.70
2019-02-22T10:25:27.822Z,71.70
2019-02-22T10:27:56.341Z,71.47
2019-02-22T10:30:24.939Z,71.19
2019-02-22T10:32:53.612Z,70.50
2019-02-22T10:35:22.319Z,68.07
2019-02-22T10:37:50.777Z,68.06
2019-02-22T10:40:19.273Z,67.34
2019-02-22T10:42:48.094Z,67.89
2019-02-22T10:45:16.606Z,68.22
2019-02-22T10:47:45.072Z,68.42
2019-02-22T10:50:13.528Z,65.70
2019-02-22T10:52:42.111Z,63.32
2019-02-22T10:55:12.506Z,62.23
2019-02-22T10:57:41.058Z,61.38
2019-02-22T11:00:12.922Z,60.42
2019-02-22T11:02:41.698Z,59.82
2019-02-22T11:05:10.405Z,57.88
2019-02-22T11:07:39.043Z,57.96
2019-02-22T11:10:10.409Z,56.62
2019-02-22T11:12:38.931Z,55.82
2019-02-22T11:15:09.970Z,55.33
2019-02-22T11:17:38.419Z,55.28
2019-02-22T11:20:11.706Z,54.19
2019-02-22T11:22:40.242Z,54.22
2019-02-22T11:25:13.639Z,54.45
2019-02-22T11:27:42.209Z,54.47
2019-02-22T11:30:14.908Z,51.90
2019-02-22T11:32:43.412Z,51.81
2019-02-22T11:35:12.028Z,52.13
2019-02-22T11:37:40.830Z,51.34
2019-02-22T11:40:10.770Z,50.19
2019-02-22T11:42:39.206Z,49.99
2019-02-22T11:45:09.139Z,51.01
2019-02-22T11:47:37.680Z,51.70
2019-02-22T11:50:10.993Z,52.87
2019-02-22T11:52:39.689Z,53.58
2019-02-22T11:55:09.717Z,54.77
2019-02-22T11:57:38.433Z,55.79
2019-02-22T12:00:17.468Z,56.11
2019-02-22T12:02:47.170Z,56.70
2019-02-22T12:05:15.732Z,57.09
2019-02-22T12:07:44.356Z,57.30
2019-02-22T12:10:13.725Z,58.04
2019-02-22T12:12:43.046Z,58.13
2019-02-22T12:15:13.054Z,58.51
2019-02-22T12:17:41.852Z,58.83
2019-02-22T12:20:11.151Z,59.62
2019-02-22T12:22:39.713Z,59.74
2019-02-22T12:25:10.905Z,59.77
2019-02-22T12:27:39.507Z,59.09
2019-02-22T12:30:15.662Z,58.72
2019-02-22T12:32:44.558Z,59.14
2019-02-22T12:35:13.273Z,59.52
2019-02-22T12:37:41.916Z,59.27
2019-02-22T12:40:11.290Z,57.78
2019-02-22T12:42:39.842Z,57.94
2019-02-22T12:45:10.436Z,58.67
2019-02-22T12:47:39.001Z,58.23
2019-02-22T12:50:09.943Z,58.96
2019-02-22T12:52:38.523Z,59.48
2019-02-22T12:55:11.516Z,60.08
2019-02-22T12:57:40.307Z,60.78
2019-02-22T13:00:14.766Z,61.40
2019-02-22T13:02:42.517Z,61.79
2019-02-22T13:05:13.962Z,62.74
2019-02-22T13:07:42.922Z,61.96
2019-02-22T13:10:11.940Z,60.80
2019-02-22T13:12:40.651Z,60.82
2019-02-22T13:15:14.386Z,60.95
2019-02-22T13:17:41.861Z,60.84
2019-02-22T13:20:10.784Z,61.25
2019-02-22T13:22:39.414Z,61.63
2019-02-22T13:25:11.720Z,61.52
2019-02-22T13:27:40.285Z,61.89
2019-02-22T13:30:14.340Z,62.09
2019-02-22T13:32:42.899Z,62.76
2019-02-22T13:35:11.641Z,62.87
2019-02-22T13:37:40.291Z,63.20
2019-02-22T13:40:14.578Z,63.06
2019-02-22T13:42:43.230Z,62.66
2019-02-22T13:45:12.790Z,62.38
2019-02-22T13:47:41.388Z,62.26
2019-02-22T13:50:17.101Z,62.51
2019-02-22T13:52:45.637Z,62.25
2019-02-22T13:55:14.973Z,62.39
2019-02-22T13:57:43.698Z,62.51
2019-02-22T14:00:18.012Z,62.65
2019-02-22T14:02:46.533Z,62.95
2019-02-22T14:05:15.246Z,63.08
2019-02-22T14:07:54.323Z,63.41
2019-02-22T14:10:23.253Z,63.67
2019-02-22T14:12:51.723Z,64.24
2019-02-22T14:15:20.262Z,64.56
2019-02-22T14:17:49.023Z,65.21
2019-02-22T14:20:17.736Z,64.99
2019-02-22T14:22:47.345Z,65.57
2019-02-22T14:25:15.858Z,65.20
2019-02-22T14:27:44.487Z,65.20
2019-02-22T14:30:17.486Z,63.84
2019-02-22T14:32:46.397Z,63.82
2019-02-22T14:35:15.008Z,63.37
2019-02-22T14:37:43.574Z,63.62
2019-02-22T14:40:13.194Z,63.62
2019-02-22T14:42:41.759Z,63.77
2019-02-22T14:45:12.608Z,64.24
2019-02-22T14:47:41.179Z,64.08
2019-02-22T14:50:15.092Z,64.62
2019-02-22T14:52:43.568Z,64.86
2019-02-22T14:55:12.248Z,65.12
2019-02-22T14:57:40.800Z,65.58
2019-02-22T15:00:14.767Z,66.08
2019-02-22T15:02:43.248Z,66.15
2019-02-22T15:05:13.549Z,66.55
2019-02-22T15:07:42.081Z,66.52
2019-02-22T15:10:11.215Z,66.81
2019-02-22T15:12:39.766Z,67.09
2019-02-22T15:15:11.195Z,67.30
2019-02-22T15:17:41.396Z,67.13
2019-02-22T15:20:09.996Z,67.22
2019-02-22T15:22:38.750Z,67.21
2019-02-22T15:25:10.607Z,67.39
2019-02-22T15:27:39.288Z,67.64
2019-02-22T15:30:10.910Z,67.81
2019-02-22T15:32:39.593Z,67.90
2019-02-22T15:35:13.400Z,67.93
2019-02-22T15:37:43.332Z,67.80
2019-02-22T15:40:13.782Z,67.76
2019-02-22T15:42:43.088Z,67.96
2019-02-22T15:45:14.326Z,68.37
2019-02-22T15:47:42.802Z,68.66
2019-02-22T15:50:13.640Z,68.97
2019-02-22T15:52:43.553Z,69.11
2019-02-22T15:55:14.348Z,69.52
2019-02-22T15:57:42.359Z,69.71
2019-02-22T16:00:26.505Z,70.24
2019-02-22T16:02:54.986Z,70.46
2019-02-22T16:05:31.145Z,71.05
2019-02-22T16:07:59.753Z,71.46
2019-02-22T16:10:28.675Z,71.68
2019-02-22T16:12:57.278Z,71.93
2019-02-22T16:15:25.849Z,72.32
2019-02-22T16:17:54.302Z,72.49
2019-02-22T16:20:23.263Z,72.66
2019-02-22T16:22:51.842Z,72.92
2019-02-22T16:25:20.451Z,73.25
2019-02-22T16:27:48.941Z,73.43
2019-02-22T16:30:19.909Z,73.72
2019-02-22T16:32:48.609Z,73.99
2019-02-22T16:35:17.150Z,74.09
2019-02-22T16:37:45.696Z,74.15
2019-02-22T16:40:14.420Z,74.27
2019-02-22T16:42:43.204Z,74.58
2019-02-22T16:45:12.923Z,74.76
2019-02-22T16:47:41.470Z,74.97
2019-02-22T16:50:14.273Z,75.02
2019-02-22T16:52:45.167Z,75.10
2019-02-22T16:55:16.942Z,75.17
2019-02-22T16:57:45.667Z,75.39
2019-02-22T17:00:16.569Z,75.58
2019-02-22T17:02:45.065Z,75.68
2019-02-22T17:05:15.691Z,75.84
2019-02-22T17:07:44.297Z,76.01
2019-02-22T17:10:13.096Z,76.17
2019-02-22T17:12:41.677Z,76.26
2019-02-22T17:15:12.264Z,76.43
2019-02-22T17:17:40.907Z,76.59
2019-02-22T17:20:11.433Z,76.92
2019-02-22T17:22:39.975Z,76.98
2019-02-22T17:25:11.281Z,77.12
2019-02-22T17:27:39.849Z,77.22
2019-02-22T17:30:16.428Z,77.37
2019-02-22T17:32:44.988Z,77.43
2019-02-22T17:35:13.587Z,77.58
2019-02-22T17:37:42.241Z,77.51
2019-02-22T17:40:16.057Z,77.60
2019-02-22T17:42:44.540Z,77.70
2019-02-22T17:45:13.183Z,77.80
2019-02-22T17:47:41.848Z,77.90
2019-02-22T17:50:10.789Z,78.03
2019-02-22T17:52:39.347Z,78.45
2019-02-22T17:55:09.569Z,78.63
2019-02-22T17:57:38.585Z,78.62
2019-02-22T18:00:11.970Z,78.90
2019-02-22T18:02:40.472Z,79.04
2019-02-22T18:05:09.080Z,79.13
2019-02-22T18:07:37.938Z,79.37
2019-02-22T18:10:11.032Z,79.55
2019-02-22T18:12:39.530Z,79.80
2019-02-22T18:15:10.633Z,79.73
2019-02-22T18:17:39.781Z,79.87
2019-02-22T18:20:09.159Z,80.02
2019-02-22T18:22:37.704Z,80.11
2019-02-22T18:25:08.641Z,80.09
2019-02-22T18:27:37.251Z,80.22
2019-02-22T18:30:11.623Z,80.18
2019-02-22T18:32:40.162Z,80.46
2019-02-22T18:35:09.059Z,80.77
2019-02-22T18:37:37.702Z,80.82
2019-02-22T18:40:09.335Z,81.03
2019-02-22T18:42:37.963Z,81.24
2019-02-22T18:45:08.200Z,81.37
2019-02-22T18:47:36.752Z,81.37
2019-02-22T18:50:08.173Z,81.81
2019-02-22T18:52:36.708Z,82.14
2019-02-22T18:55:09.661Z,82.47
2019-02-22T18:57:38.381Z,83.01
2019-02-22T19:00:16.653Z,83.29
2019-02-22T19:02:45.141Z,83.30
2019-02-22T19:05:13.737Z,83.56
2019-02-22T19:07:42.514Z,84.08
2019-02-22T19:10:13.553Z,84.31
2019-02-22T19:12:42.215Z,84.61
2019-02-22T19:15:12.602Z,84.94
2019-02-22T19:17:41.544Z,84.87
2019-02-22T19:20:15.734Z,84.73
2019-02-22T19:22:43.769Z,85.24
2019-02-22T19:25:12.531Z,87.01
2019-02-22T19:27:41.146Z,85.39
2019-02-22T19:30:23.877Z,85.73
2019-02-22T19:32:52.487Z,85.66
2019-02-22T19:35:21.449Z,86.37
2019-02-22T19:37:50.015Z,86.37
2019-02-22T19:40:21.443Z,86.79
2019-02-22T19:42:50.490Z,86.51
2019-02-22T19:45:19.607Z,86.87
2019-02-22T19:47:48.126Z,86.74
2019-02-22T19:50:17.356Z,86.84
2019-02-22T19:52:45.949Z,86.84
2019-02-22T19:55:17.032Z,87.31
2019-02-22T19:57:45.650Z,86.98
2019-02-22T20:00:16.323Z,87.32
2019-02-22T20:02:44.882Z,87.01
2019-02-22T20:05:14.598Z,87.08
2019-02-22T20:07:43.160Z,87.70
2019-02-22T20:10:17.818Z,87.63
2019-02-22T20:12:44.633Z,87.44
2019-02-22T20:15:17.511Z,87.51
2019-02-22T20:17:53.815Z,87.28
2019-02-22T20:20:18.029Z,88.03
2019-02-22T20:22:46.581Z,87.82
2019-02-22T20:25:15.103Z,88.11
2019-02-22T20:27:43.747Z,87.76
2019-02-22T20:30:14.540Z,87.70
2019-02-22T20:32:44.161Z,87.88
2019-02-22T20:35:14.973Z,88.48
2019-02-22T20:37:51.878Z,88.64
2019-02-22T20:40:13.986Z,88.67
2019-02-22T20:42:43.829Z,88.83
2019-02-22T20:45:13.285Z,88.73
2019-02-22T20:47:41.889Z,89.20
2019-02-22T20:50:12.223Z,89.02
2019-02-22T20:52:40.693Z,88.93
2019-02-22T20:55:12.524Z,89.08
2019-02-22T20:57:41.037Z,89.13
2019-02-22T21:00:18.137Z,89.27
2019-02-22T21:02:46.770Z,89.52
2019-02-22T21:05:15.386Z,89.22
2019-02-22T21:07:43.971Z,89.47
2019-02-22T21:10:19.730Z,89.33
2019-02-22T21:12:48.511Z,89.19
2019-02-22T21:15:17.205Z,89.07
2019-02-22T21:17:45.757Z,88.95
2019-02-22T21:20:19.083Z,88.89
2019-02-22T21:22:47.633Z,88.87
2019-02-22T21:25:16.250Z,88.72
2019-02-22T21:27:44.732Z,88.65
2019-02-22T21:30:15.401Z,88.61
2019-02-22T21:32:44.150Z,88.44
2019-02-22T21:35:12.941Z,88.60
2019-02-22T21:37:42.845Z,88.86
2019-02-22T21:40:12.730Z,88.94
2019-02-22T21:42:41.239Z,88.91
2019-02-22T21:45:12.796Z,89.05
2019-02-22T21:47:41.342Z,89.02
2019-02-22T21:50:12.382Z,89.04
2019-02-22T21:52:40.979Z,89.03
2019-02-22T21:55:16.148Z,88.94
2019-02-22T21:57:44.651Z,88.91
2019-02-22T22:00:18.632Z,88.90
2019-02-22T22:02:47.286Z,88.69
2019-02-22T22:05:15.826Z,88.72
2019-02-22T22:07:44.549Z,88.82
2019-02-22T22:10:13.072Z,88.72
2019-02-22T22:12:41.768Z,88.82
2019-02-22T22:15:11.994Z,88.91
2019-02-22T22:17:40.655Z,88.83
2019-02-22T22:20:10.255Z,88.86
2019-02-22T22:22:39.256Z,89.05
2019-02-22T22:25:10.814Z,88.89
2019-02-22T22:27:39.269Z,88.88
2019-02-22T22:30:12.662Z,88.88
2019-02-22T22:32:41.388Z,89.17
2019-02-22T22:35:11.708Z,89.16
2019-02-22T22:37:40.251Z,89.20
2019-02-22T22:40:10.600Z,89.27
2019-02-22T22:42:39.195Z,89.25
2019-02-22T22:45:12.756Z,89.31
2019-02-22T22:47:41.241Z,89.04
2019-02-22T22:50:17.155Z,89.14
2019-02-22T22:52:45.605Z,89.11
2019-02-22T22:55:14.166Z,89.24
2019-02-22T22:57:42.697Z,89.10
2019-02-22T23:00:40.182Z,89.30
2019-02-22T23:03:08.813Z,89.22
2019-02-22T23:05:37.341Z,89.30
2019-02-22T23:08:06.332Z,89.41
2019-02-22T23:10:34.944Z,89.25
2019-02-22T23:13:03.461Z,89.57
2019-02-22T23:15:32.259Z,89.65
2019-02-22T23:18:00.794Z,89.41
2019-02-22T23:20:29.380Z,89.32
2019-02-22T23:22:57.962Z,89.57
2019-02-22T23:25:26.415Z,89.81
2019-02-22T23:27:55.049Z,89.80
2019-02-22T23:30:23.614Z,89.65
2019-02-22T23:32:52.163Z,89.79
2019-02-22T23:35:21.286Z,89.83
2019-02-22T23:37:49.806Z,89.94
2019-02-22T23:40:18.292Z,90.07
2019-02-22T23:42:46.756Z,89.87
2019-02-22T23:45:15.312Z,90.11
2019-02-22T23:47:43.853Z,90.25
2019-02-22T23:50:12.331Z,90.34
2019-02-22T23:52:40.812Z,90.49
2019-02-22T23:55:09.294Z,90.39
2019-02-22T23:57:37.752Z,90.50
